KTQH 261355Z AUTO 00000KT 10SM CLR 14/09 A3018 RMK AO2